Time;durP1;ratioP1;P1;durP2;ratioP2;P2;SDS_P1;SDS_P2;PMS_P1;PMS_P2;Temp;Humidity;BMP_temperature;BMP_pressure;BME280_temperature;BME280_humidity;BME280_pressure;Samples;Min_cycle;Max_cycle;Signal;HPM_P1;HPM_P2
2022/07/11 00:01:51;;;;;;;4.82;1.00;;;13.60;90.20;;;;;;5010651;28;20022;-56
2022/07/11 00:04:18;;;;;;;0.57;0.32;;;13.60;86.70;;;;;;5010762;28;20022;-57
2022/07/11 00:06:45;;;;;;;1.88;0.60;;;13.60;86.90;;;;;;5010775;28;20057;-51
2022/07/11 00:09:12;;;;;;;1.83;0.35;;;13.60;88.70;;;;;;5009263;28;20030;-55
2022/07/11 00:11:40;;;;;;;1.88;0.38;;;13.50;88.50;;;;;;5010390;28;20116;-57
2022/07/11 00:14:07;;;;;;;2.58;0.88;;;13.40;89.70;;;;;;5010508;28;20026;-54
2022/07/11 00:16:34;;;;;;;1.58;0.40;;;13.20;87.90;;;;;;5010231;28;20037;-57
2022/07/11 00:19:01;;;;;;;3.08;0.50;;;13.10;88.90;;;;;;5010230;28;20101;-56
2022/07/11 00:21:29;;;;;;;4.43;0.60;;;12.90;89.10;;;;;;5010128;28;20026;-55
2022/07/11 00:23:56;;;;;;;2.95;0.90;;;12.90;90.60;;;;;;5010147;28;20025;-58
2022/07/11 00:26:24;;;;;;;2.42;1.30;;;12.80;90.10;;;;;;5009925;28;20018;-58
2022/07/11 00:28:51;;;;;;;1.92;0.68;;;12.90;90.20;;;;;;5008790;28;20026;-58
2022/07/11 00:31:18;;;;;;;2.40;0.80;;;13.00;90.30;;;;;;5010159;28;20030;-61
2022/07/11 00:33:45;;;;;;;6.45;2.90;;;13.20;90.40;;;;;;5010035;28;20022;-59
2022/07/11 00:36:13;;;;;;;4.70;0.63;;;13.30;90.10;;;;;;5008609;28;20059;-59
2022/07/11 00:38:40;;;;;;;5.97;0.68;;;13.40;88.80;;;;;;5007003;28;20030;-58
2022/07/11 00:41:08;;;;;;;3.58;1.48;;;13.60;88.30;;;;;;5006839;28;20029;-61
2022/07/11 00:43:39;;;;;;;4.95;1.85;;;13.70;88.80;;;;;;4992695;28;20037;-58
2022/07/11 00:46:08;;;;;;;7.32;2.22;;;13.80;88.20;;;;;;5021142;28;20026;-58
2022/07/11 00:48:36;;;;;;;9.25;3.00;;;14.00;88.10;;;;;;5009755;28;20787;-58
2022/07/11 00:51:05;;;;;;;4.10;0.82;;;14.10;87.20;;;;;;5008316;28;20109;-58
2022/07/11 00:53:34;;;;;;;1.40;0.50;;;14.20;87.40;;;;;;5011192;28;20442;-59
2022/07/11 00:56:02;;;;;;;2.80;0.52;;;14.30;85.10;;;;;;5005639;28;20056;-58
2022/07/11 00:58:30;;;;;;;5.03;1.42;;;14.50;82.60;;;;;;5008103;28;20026;-57
2022/07/11 01:00:58;;;;;;;3.72;0.88;;;14.70;85.00;;;;;;5014414;28;20056;-58
2022/07/11 01:03:25;;;;;;;3.78;0.95;;;15.00;83.20;;;;;;5017499;28;20025;-58
2022/07/11 01:05:53;;;;;;;4.22;0.93;;;15.20;80.00;;;;;;5015589;28;20048;-58
2022/07/11 01:08:20;;;;;;;1.73;1.42;;;15.20;78.40;;;;;;5024670;28;20387;-55
2022/07/11 01:10:47;;;;;;;7.05;0.73;;;15.10;78.50;;;;;;5013038;28;20095;-57
2022/07/11 01:13:15;;;;;;;2.47;0.47;;;15.00;79.80;;;;;;5022323;28;20025;-57
2022/07/11 01:15:42;;;;;;;4.13;0.70;;;14.80;80.00;;;;;;5012805;28;20053;-59
2022/07/11 01:18:09;;;;;;;4.30;0.80;;;14.70;81.30;;;;;;5007513;28;20030;-57
2022/07/11 01:20:37;;;;;;;1.77;0.70;;;14.60;82.80;;;;;;5011508;28;20029;-57
2022/07/11 01:23:07;;;;;;;3.33;0.75;;;14.50;84.10;;;;;;5014997;28;20109;-59
2022/07/11 01:25:35;;;;;;;2.65;0.52;;;14.60;83.60;;;;;;5008653;28;20040;-54
2022/07/11 01:28:06;;;;;;;1.95;0.70;;;14.80;81.90;;;;;;5018404;28;20395;-54
2022/07/11 01:30:34;;;;;;;2.97;0.70;;;14.80;80.70;;;;;;5003550;28;20026;-56
2022/07/11 01:33:01;;;;;;;1.80;0.50;;;14.90;80.00;;;;;;5002782;28;20014;-56
2022/07/11 01:35:29;;;;;;;6.28;0.82;;;14.90;78.90;;;;;;4999495;28;20076;-56
2022/07/11 01:37:57;;;;;;;4.88;0.68;;;14.80;77.10;;;;;;4998641;28;20023;-52
2022/07/11 01:40:24;;;;;;;0.95;0.40;;;14.60;79.10;;;;;;5005852;28;20037;-53
2022/07/11 01:42:51;;;;;;;5.25;0.88;;;14.50;80.90;;;;;;5001382;28;20022;-56
2022/07/11 01:45:18;;;;;;;4.78;1.73;;;14.50;80.50;;;;;;5011414;28;20028;-55
2022/07/11 01:47:46;;;;;;;3.30;0.45;;;14.50;80.90;;;;;;5024907;28;20418;-54
2022/07/11 01:50:13;;;;;;;2.90;0.70;;;14.70;80.20;;;;;;5016129;28;20022;-54
2022/07/11 01:52:40;;;;;;;2.45;0.60;;;14.90;78.80;;;;;;5014381;28;20034;-56
2022/07/11 01:55:08;;;;;;;5.78;0.80;;;15.00;78.60;;;;;;5020328;28;20022;-55
2022/07/11 01:57:35;;;;;;;8.93;1.65;;;15.00;78.10;;;;;;5018399;28;20109;-58
2022/07/11 02:00:03;;;;;;;2.47;0.45;;;15.20;80.00;;;;;;5012671;28;20557;-55
2022/07/11 02:02:31;;;;;;;3.50;0.65;;;15.40;79.10;;;;;;5018192;28;20033;-53
2022/07/11 02:04:58;;;;;;;2.17;0.60;;;15.50;77.40;;;;;;5009093;28;20028;-53
2022/07/11 02:10:10;;;;;;;5.35;0.60;;;15.90;76.00;;;;;;5006417;28;20041;-54
2022/07/11 02:12:38;;;;;;;2.13;0.45;;;16.20;74.70;;;;;;5025369;28;20064;-51
2022/07/11 02:15:05;;;;;;;4.32;1.00;;;16.20;72.00;;;;;;5011171;28;20595;-54
2022/07/11 02:17:32;;;;;;;1.60;0.52;;;15.90;73.20;;;;;;5019871;28;20042;-56
2022/07/11 02:20:00;;;;;;;2.28;0.70;;;15.90;74.70;;;;;;5012124;28;20030;-58
2022/07/11 02:22:29;;;;;;;3.60;0.43;;;15.90;75.30;;;;;;5009770;28;20033;-55
2022/07/11 02:24:57;;;;;;;3.85;0.40;;;15.90;71.80;;;;;;5007161;28;20029;-55
2022/07/11 02:27:24;;;;;;;5.03;0.80;;;15.90;74.20;;;;;;4999929;28;20034;-54
2022/07/11 02:29:51;;;;;;;4.97;0.70;;;16.10;73.40;;;;;;5005445;28;20197;-56
2022/07/11 02:32:19;;;;;;;3.30;0.63;;;16.20;73.60;;;;;;5014571;28;20026;-59
2022/07/11 02:34:46;;;;;;;3.22;0.70;;;16.20;72.90;;;;;;5026887;28;20025;-55
2022/07/11 02:37:13;;;;;;;3.00;0.70;;;16.20;71.90;;;;;;5011988;28;20486;-57
2022/07/11 02:39:40;;;;;;;2.92;0.45;;;16.20;72.50;;;;;;5024290;28;20464;-54
2022/07/11 02:42:07;;;;;;;7.60;0.80;;;16.20;70.90;;;;;;5030906;28;20026;-56
2022/07/11 02:44:34;;;;;;;2.47;0.70;;;16.40;72.00;;;;;;4999391;28;20021;-55
2022/07/11 02:47:02;;;;;;;1.70;0.40;;;16.40;71.90;;;;;;5023380;28;20046;-55
2022/07/11 02:49:33;;;;;;;6.07;0.50;;;16.40;70.40;;;;;;5010201;28;20034;-57
2022/07/11 02:52:00;;;;;;;1.48;0.50;;;16.50;72.60;;;;;;5016114;28;20099;-57
2022/07/11 02:54:28;;;;;;;4.35;0.63;;;16.60;72.10;;;;;;5027804;28;20041;-57
2022/07/11 02:56:56;;;;;;;5.90;0.75;;;16.70;69.60;;;;;;5017847;28;20446;-55
2022/07/11 02:59:23;;;;;;;5.25;0.70;;;16.80;69.20;;;;;;5020762;28;20114;-55
2022/07/11 03:01:51;;;;;;;3.13;0.60;;;16.80;69.10;;;;;;5025290;28;20025;-57
2022/07/11 03:04:18;;;;;;;1.98;0.90;;;17.00;71.10;;;;;;5013787;28;20117;-56
2022/07/11 03:06:46;;;;;;;1.00;0.40;;;17.10;70.30;;;;;;5026515;28;20027;-55
2022/07/11 03:09:13;;;;;;;4.30;1.02;;;17.30;69.20;;;;;;5011622;28;20029;-57
2022/07/11 03:11:40;;;;;;;3.00;0.40;;;17.30;68.10;;;;;;5019733;28;20072;-53
2022/07/11 03:14:08;;;;;;;4.20;0.50;;;17.10;65.70;;;;;;5008531;28;20026;-55
2022/07/11 03:16:36;;;;;;;2.78;0.75;;;16.80;64.60;;;;;;5002392;28;20053;-52
2022/07/11 03:19:03;;;;;;;4.47;1.00;;;16.60;64.90;;;;;;5010659;28;20526;-49
2022/07/11 03:21:30;;;;;;;5.85;1.10;;;16.40;65.00;;;;;;5010724;28;20117;-50
2022/07/11 03:23:58;;;;;;;1.80;0.45;;;16.30;66.40;;;;;;5014374;28;20064;-49
2022/07/11 03:26:25;;;;;;;3.22;0.88;;;16.20;67.30;;;;;;5027305;28;20038;-50
2022/07/11 03:28:53;;;;;;;4.38;1.52;;;16.20;68.20;;;;;;5016112;28;20386;-50
2022/07/11 03:31:20;;;;;;;2.30;0.50;;;16.30;68.10;;;;;;5017531;28;20029;-52
2022/07/11 03:33:47;;;;;;;2.08;0.45;;;16.50;68.40;;;;;;5014076;28;20076;-51
2022/07/11 03:36:14;;;;;;;2.78;0.60;;;16.80;69.70;;;;;;5023109;28;20033;-53
2022/07/11 03:38:41;;;;;;;2.28;0.73;;;16.90;67.20;;;;;;5022825;28;20025;-51
2022/07/11 03:41:09;;;;;;;5.30;0.77;;;17.00;70.00;;;;;;5019025;28;20087;-51
2022/07/11 03:43:36;;;;;;;2.53;0.70;;;16.90;71.10;;;;;;5018185;28;20029;-52
2022/07/11 03:46:03;;;;;;;1.10;0.45;;;16.70;72.40;;;;;;5010564;28;20370;-49
2022/07/11 03:48:30;;;;;;;3.30;0.60;;;16.40;73.20;;;;;;5009056;28;20018;-53
2022/07/11 03:50:58;;;;;;;4.00;0.75;;;16.40;72.70;;;;;;5008521;28;20041;-55
2022/07/11 03:53:25;;;;;;;3.90;1.25;;;16.10;74.60;;;;;;5003633;28;20036;-52
2022/07/11 03:55:52;;;;;;;2.53;1.10;;;15.90;75.40;;;;;;5004443;28;20030;-51
2022/07/11 03:58:19;;;;;;;1.83;0.60;;;15.80;78.50;;;;;;5007827;28;20026;-52
2022/07/11 04:00:46;;;;;;;3.20;0.70;;;15.70;77.50;;;;;;5005472;28;20484;-53
2022/07/11 04:03:14;;;;;;;2.35;0.88;;;15.60;77.80;;;;;;5004824;28;20030;-53
2022/07/11 04:05:41;;;;;;;5.15;0.82;;;15.50;78.70;;;;;;5009520;28;20486;-50
2022/07/11 04:08:08;;;;;;;7.47;0.68;;;15.40;79.30;;;;;;5011561;28;20036;-54
2022/07/11 04:10:35;;;;;;;7.85;1.02;;;15.20;80.00;;;;;;5023645;28;20026;-49
2022/07/11 04:13:03;;;;;;;2.53;0.50;;;15.10;81.50;;;;;;5010753;28;20076;-51
2022/07/11 04:15:30;;;;;;;2.50;1.02;;;15.00;80.60;;;;;;5017601;28;20030;-52
2022/07/11 04:17:57;;;;;;;1.63;0.85;;;14.90;81.30;;;;;;5009082;28;20456;-54
2022/07/11 04:20:24;;;;;;;4.95;1.80;;;14.70;81.80;;;;;;5012754;28;20105;-50
2022/07/11 04:22:51;;;;;;;3.25;0.85;;;14.70;83.20;;;;;;5012191;28;20478;-51
2022/07/11 04:25:19;;;;;;;0.93;0.47;;;14.70;83.40;;;;;;5019179;28;20029;-52
2022/07/11 04:27:46;;;;;;;3.22;0.80;;;14.70;83.40;;;;;;5014899;28;20033;-49
2022/07/11 04:30:13;;;;;;;3.30;0.95;;;14.60;83.40;;;;;;5011236;28;20502;-49
2022/07/11 04:32:40;;;;;;;2.03;0.50;;;14.50;82.30;;;;;;5011057;28;20113;-48
2022/07/11 04:35:08;;;;;;;2.63;0.70;;;14.50;82.10;;;;;;5007852;28;20171;-51
2022/07/11 04:37:35;;;;;;;3.70;0.80;;;14.40;81.70;;;;;;5020489;28;20029;-50
2022/07/11 04:40:03;;;;;;;2.65;0.50;;;14.40;81.80;;;;;;5009886;28;20034;-55
2022/07/11 04:42:30;;;;;;;4.35;0.90;;;14.30;82.70;;;;;;5016016;28;20124;-52
2022/07/11 04:45:03;;;;;;;5.10;1.20;;;14.30;84.10;;;;;;5026677;28;20079;-50
2022/07/11 04:47:31;;;;;;;8.27;1.40;;;14.40;84.20;;;;;;5009031;28;20104;-51
2022/07/11 04:49:58;;;;;;;4.00;0.93;;;14.40;83.50;;;;;;5013981;28;20620;-48
2022/07/11 04:52:26;;;;;;;6.18;1.20;;;14.40;82.90;;;;;;5013533;28;20535;-49
2022/07/11 04:54:54;;;;;;;4.45;0.90;;;14.40;83.10;;;;;;5008917;28;20028;-47
2022/07/11 04:57:21;;;;;;;3.42;1.50;;;14.40;81.90;;;;;;4998381;28;20382;-51
2022/07/11 04:59:49;;;;;;;3.60;0.80;;;14.40;82.30;;;;;;5008006;28;20021;-57
2022/07/11 05:02:17;;;;;;;4.90;0.88;;;14.50;83.30;;;;;;5006457;28;20019;-56
2022/07/11 05:04:45;;;;;;;1.75;0.70;;;14.50;83.00;;;;;;5012805;28;20022;-56
2022/07/11 05:07:13;;;;;;;3.08;1.20;;;14.60;81.60;;;;;;5020076;28;20505;-59
2022/07/11 05:09:40;;;;;;;4.07;1.30;;;14.60;82.00;;;;;;5016465;28;20068;-57
2022/07/11 05:12:08;;;;;;;7.07;1.50;;;14.60;81.80;;;;;;5008081;28;20034;-58
2022/07/11 05:14:36;;;;;;;5.07;1.17;;;14.60;82.40;;;;;;5019772;28;20530;-57
2022/07/11 05:17:03;;;;;;;5.38;1.27;;;14.70;81.70;;;;;;5014001;28;20018;-52
2022/07/11 05:19:30;;;;;;;3.30;1.23;;;14.60;81.20;;;;;;5018906;28;20091;-55
2022/07/11 05:21:57;;;;;;;4.68;1.10;;;14.60;80.20;;;;;;5012683;28;20030;-59
2022/07/11 05:24:25;;;;;;;5.18;1.00;;;14.60;80.90;;;;;;5027545;28;20033;-61
2022/07/11 05:26:52;;;;;;;4.13;1.40;;;14.60;81.50;;;;;;5016147;28;20782;-53
2022/07/11 05:29:19;;;;;;;5.13;1.77;;;14.60;81.40;;;;;;5022798;28;20076;-56
2022/07/11 05:31:50;;;;;;;2.78;1.10;;;14.60;79.90;;;;;;5016531;28;20407;-55
2022/07/11 05:34:18;;;;;;;2.58;1.40;;;14.60;80.70;;;;;;5014112;28;20018;-56
2022/07/11 05:36:45;;;;;;;2.13;1.00;;;14.60;80.90;;;;;;5026328;28;20036;-57
2022/07/11 05:39:12;;;;;;;3.03;1.05;;;14.60;80.70;;;;;;5020610;28;20021;-57
2022/07/11 05:41:39;;;;;;;2.08;0.90;;;14.60;80.70;;;;;;5017844;28;20136;-59
2022/07/11 05:44:07;;;;;;;4.32;1.25;;;14.60;81.60;;;;;;5010810;28;20029;-57
2022/07/11 05:46:39;;;;;;;5.75;1.10;;;14.50;81.70;;;;;;5005733;28;20057;-55
2022/07/11 05:49:10;;;;;;;1.33;0.80;;;14.40;82.40;;;;;;5009762;28;20022;-54
2022/07/11 05:51:41;;;;;;;4.38;0.75;;;14.40;82.50;;;;;;5012837;28;20363;-58
2022/07/11 05:54:08;;;;;;;3.80;0.70;;;14.30;82.70;;;;;;5028341;28;20032;-58
2022/07/11 05:56:35;;;;;;;2.38;0.95;;;14.20;83.20;;;;;;5014460;28;20017;-56
2022/07/11 05:59:03;;;;;;;2.10;0.68;;;14.20;84.10;;;;;;5022393;28;20037;-56
2022/07/11 06:01:31;;;;;;;3.88;0.98;;;14.10;84.80;;;;;;5009139;28;20112;-58
2022/07/11 06:04:00;;;;;;;3.78;0.82;;;14.10;85.00;;;;;;5020623;28;20022;-61
2022/07/11 06:06:27;;;;;;;4.88;1.45;;;14.00;85.70;;;;;;5009277;28;20036;-56
2022/07/11 06:08:54;;;;;;;4.85;1.27;;;14.00;86.00;;;;;;5021416;28;20029;-50
2022/07/11 06:11:21;;;;;;;4.25;1.48;;;13.90;86.00;;;;;;5026681;28;20033;-59
2022/07/11 06:13:49;;;;;;;6.28;1.00;;;13.80;86.40;;;;;;5012872;28;20074;-58
2022/07/11 06:16:17;;;;;;;4.25;1.10;;;13.70;87.50;;;;;;5010106;28;20030;-61
2022/07/11 06:18:45;;;;;;;6.70;1.30;;;13.60;88.70;;;;;;5011164;28;20147;-58
2022/07/11 06:21:13;;;;;;;6.78;1.65;;;13.40;88.60;;;;;;4997650;28;20113;-56
2022/07/11 06:23:42;;;;;;;5.68;1.52;;;13.40;89.80;;;;;;5007110;28;20034;-59
2022/07/11 06:26:11;;;;;;;6.07;1.20;;;13.40;89.70;;;;;;5015974;28;20021;-59
2022/07/11 06:28:39;;;;;;;4.82;1.58;;;13.30;90.10;;;;;;5017550;28;20083;-56
2022/07/11 06:31:06;;;;;;;6.03;1.50;;;13.20;90.40;;;;;;5022703;28;20034;-58
2022/07/11 06:33:37;;;;;;;3.47;0.82;;;13.10;90.50;;;;;;5011333;28;20109;-58
2022/07/11 06:36:06;;;;;;;3.72;1.40;;;13.00;90.80;;;;;;5017793;28;20366;-58
2022/07/11 06:38:34;;;;;;;6.32;1.40;;;13.00;91.20;;;;;;5009844;28;20291;-55
2022/07/11 06:41:02;;;;;;;8.00;1.45;;;13.00;91.40;;;;;;5024177;28;20108;-57
2022/07/11 06:43:32;;;;;;;8.40;1.60;;;13.00;91.30;;;;;;5008522;28;20030;-57
2022/07/11 06:46:02;;;;;;;5.93;1.70;;;12.90;91.50;;;;;;5016685;28;20083;-56
2022/07/11 06:48:29;;;;;;;7.47;1.85;;;12.90;91.70;;;;;;5025066;28;20049;-50
2022/07/11 06:50:56;;;;;;;7.63;1.80;;;12.80;91.80;;;;;;5024969;28;20059;-49
2022/07/11 06:53:23;;;;;;;4.05;2.10;;;12.70;91.80;;;;;;5008925;28;20066;-49
2022/07/11 06:55:51;;;;;;;8.00;1.60;;;12.60;92.10;;;;;;5017424;28;20067;-60
2022/07/11 06:58:33;;;;;;;12.00;2.00;;;12.50;91.90;;;;;;5014069;28;20030;-57
2022/07/11 07:01:01;;;;;;;10.20;2.85;;;12.40;92.40;;;;;;5008121;28;20025;-57
2022/07/11 07:03:30;;;;;;;5.20;1.80;;;12.30;92.80;;;;;;5020346;28;20026;-57
2022/07/11 07:05:58;;;;;;;5.57;2.00;;;12.20;92.90;;;;;;5009175;28;20395;-56
2022/07/11 07:08:30;;;;;;;7.75;1.45;;;12.10;92.70;;;;;;5014626;28;20030;-58
2022/07/11 07:10:58;;;;;;;7.22;2.17;;;11.90;92.80;;;;;;5017855;28;20041;-54
2022/07/11 07:13:28;;;;;;;5.95;1.90;;;11.80;93.20;;;;;;5019642;28;20398;-54
2022/07/11 07:15:59;;;;;;;5.95;1.85;;;11.70;94.10;;;;;;5010485;28;20029;-54
2022/07/11 07:18:26;;;;;;;4.40;1.17;;;11.70;94.20;;;;;;5011180;28;20018;-57
2022/07/11 07:20:54;;;;;;;5.72;1.90;;;11.60;94.10;;;;;;5015371;28;20017;-51
2022/07/11 07:23:21;;;;;;;6.80;2.72;;;11.60;94.80;;;;;;5021286;28;20075;-55
2022/07/11 07:25:49;;;;;;;6.68;2.05;;;11.60;94.90;;;;;;5007725;28;20467;-52
2022/07/11 07:28:16;;;;;;;8.77;2.30;;;11.70;95.00;;;;;;5003430;28;20117;-54
2022/07/11 07:30:45;;;;;;;5.85;2.67;;;11.70;95.20;;;;;;4999076;28;20038;-53
2022/07/11 07:33:13;;;;;;;7.55;2.00;;;11.80;95.20;;;;;;4998786;28;20500;-56
2022/07/11 07:35:40;;;;;;;6.30;2.75;;;11.80;95.10;;;;;;5002841;28;20410;-58
2022/07/11 07:38:07;;;;;;;12.40;2.25;;;11.70;95.40;;;;;;5004416;28;20029;-56
2022/07/11 07:40:34;;;;;;;12.85;2.85;;;11.70;95.60;;;;;;5004382;28;20355;-59
2022/07/11 07:43:02;;;;;;;14.07;2.80;;;11.60;95.50;;;;;;5011285;28;20414;-57
2022/07/11 07:45:29;;;;;;;11.68;2.70;;;11.70;95.80;;;;;;5016738;28;20033;-55
2022/07/11 07:47:56;;;;;;;8.68;2.63;;;11.60;95.70;;;;;;5008068;28;20092;-55
2022/07/11 07:50:23;;;;;;;11.45;2.88;;;11.50;95.20;;;;;;5010123;28;20029;-58
2022/07/11 07:52:51;;;;;;;9.18;2.55;;;11.40;96.20;;;;;;5015231;28;20053;-57
2022/07/11 07:55:18;;;;;;;8.15;3.20;;;11.30;96.30;;;;;;5020206;28;20026;-55
2022/07/11 07:57:45;;;;;;;8.30;3.03;;;11.20;96.50;;;;;;5022669;28;20517;-57
2022/07/11 08:03:05;;;;;;;8.88;2.80;;;11.00;96.00;;;;;;5008182;28;20076;-58
2022/07/11 08:05:33;;;;;;;10.15;2.60;;;10.90;96.00;;;;;;5004020;28;20077;-55
2022/07/11 08:08:00;;;;;;;9.85;2.70;;;10.70;96.00;;;;;;4999337;28;20499;-57
2022/07/11 08:10:27;;;;;;;8.63;3.35;;;10.70;97.40;;;;;;5015006;28;20116;-57
2022/07/11 08:12:55;;;;;;;13.23;2.85;;;10.60;97.10;;;;;;5011201;28;20091;-56
2022/07/11 08:15:22;;;;;;;20.33;6.57;;;10.50;96.80;;;;;;5010434;28;20076;-56
2022/07/11 08:17:49;;;;;;;21.83;6.25;;;10.50;97.90;;;;;;5005684;28;20515;-56
2022/07/11 08:20:17;;;;;;;22.60;7.05;;;10.50;97.90;;;;;;5023856;28;20033;-57
2022/07/11 08:22:44;;;;;;;18.13;6.50;;;10.50;98.10;;;;;;5008529;28;20025;-54
2022/07/11 08:25:11;;;;;;;16.05;4.45;;;10.70;99.30;;;;;;5001000;28;20026;-56
2022/07/11 08:27:39;;;;;;;15.63;4.05;;;10.90;98.70;;;;;;5004786;28;20032;-54
2022/07/11 08:30:08;;;;;;;17.45;9.48;;;10.90;97.90;;;;;;5005118;28;20065;-57
2022/07/11 08:32:39;;;;;;;20.90;6.65;;;10.90;98.00;;;;;;5005777;28;20037;-57
2022/07/11 08:35:07;;;;;;;17.27;6.30;;;11.00;98.30;;;;;;5005343;28;20026;-58
2022/07/11 08:37:36;;;;;;;13.55;4.90;;;11.00;98.20;;;;;;5006140;28;20521;-56
2022/07/11 08:40:04;;;;;;;10.77;3.90;;;11.00;98.20;;;;;;5008369;28;20053;-57
2022/07/11 08:42:31;;;;;;;14.50;4.15;;;11.00;97.90;;;;;;5014708;28;20500;-57
2022/07/11 08:45:00;;;;;;;11.30;4.05;;;11.10;97.60;;;;;;5009885;28;20387;-56
2022/07/11 08:47:29;;;;;;;14.57;3.85;;;11.00;97.50;;;;;;5012747;28;20049;-56
2022/07/11 08:49:59;;;;;;;21.00;6.03;;;10.90;97.50;;;;;;5003979;28;20057;-57
2022/07/11 08:52:27;;;;;;;15.25;5.50;;;10.90;98.30;;;;;;5014258;28;20403;-56
2022/07/11 08:54:55;;;;;;;13.55;5.90;;;10.80;98.20;;;;;;5004474;28;20787;-56
2022/07/11 08:57:23;;;;;;;14.68;6.88;;;10.70;97.60;;;;;;5006681;28;20033;-57
2022/07/11 08:59:57;;;;;;;15.60;6.35;;;10.60;97.00;;;;;;5004984;28;20553;-59
2022/07/11 09:02:24;;;;;;;28.25;6.10;;;10.40;96.90;;;;;;5006125;28;20031;-55
2022/07/11 09:04:52;;;;;;;14.43;4.65;;;10.20;97.10;;;;;;5006135;28;20080;-59
2022/07/11 09:07:19;;;;;;;10.23;3.47;;;10.00;96.80;;;;;;5015839;28;20375;-55
2022/07/11 09:09:46;;;;;;;11.07;5.10;;;9.90;97.70;;;;;;5021439;28;20033;-56
2022/07/11 09:12:16;;;;;;;15.77;5.03;;;9.80;97.50;;;;;;5010294;28;20034;-56
2022/07/11 09:14:53;;;;;;;14.30;5.55;;;9.70;97.10;;;;;;5012720;28;20018;-57
2022/07/11 09:17:32;;;;;;;13.73;8.27;;;9.40;96.90;;;;;;5014569;28;20029;-55
2022/07/11 09:19:59;;;;;;;25.63;5.45;;;9.30;97.10;;;;;;5019960;28;20490;-52
2022/07/11 09:25:19;;;;;;;12.45;4.50;;;9.10;97.20;;;;;;5017154;28;20065;-56
2022/07/11 09:27:50;;;;;;;14.68;5.15;;;9.00;97.70;;;;;;5020532;28;20032;-53
2022/07/11 09:30:26;;;;;;;16.48;5.07;;;8.90;98.20;;;;;;5008690;28;20041;-55
2022/07/11 09:33:05;;;;;;;20.05;6.28;;;9.00;99.10;;;;;;5005994;28;20425;-55
2022/07/11 09:35:37;;;;;;;21.10;6.55;;;9.20;99.90;;;;;;5010242;28;20026;-56
2022/07/11 09:38:21;;;;;;;20.40;6.07;;;9.20;99.40;;;;;;5009569;28;20053;-56
2022/07/11 09:40:49;;;;;;;15.98;6.43;;;9.20;99.20;;;;;;5006118;28;20037;-55
2022/07/11 09:43:26;;;;;;;20.52;6.40;;;9.20;99.30;;;;;;5013120;28;20040;-55
2022/07/11 09:46:05;;;;;;;21.05;5.65;;;9.10;99.30;;;;;;5006929;28;20487;-51
2022/07/11 09:48:32;;;;;;;13.68;6.38;;;9.10;99.30;;;;;;5003112;28;20089;-55
2022/07/11 09:51:02;;;;;;;19.88;7.22;;;9.10;99.40;;;;;;5005473;28;20100;-55
2022/07/11 09:53:31;;;;;;;27.73;11.20;;;9.10;99.50;;;;;;5004967;28;20435;-54
2022/07/11 09:55:58;;;;;;;25.33;11.65;;;9.10;99.70;;;;;;5006112;28;20113;-56
2022/07/11 09:58:31;;;;;;;28.27;11.27;;;9.10;99.60;;;;;;5004949;28;20465;-57
2022/07/11 10:00:59;;;;;;;22.52;11.15;;;9.10;99.70;;;;;;5002679;28;20025;-54
2022/07/11 10:03:27;;;;;;;24.52;11.15;;;9.10;99.60;;;;;;5009313;28;20026;-56
2022/07/11 10:05:55;;;;;;;20.08;8.05;;;9.10;99.70;;;;;;5009275;28;20044;-57
2022/07/11 10:08:22;;;;;;;22.58;7.68;;;9.10;99.70;;;;;;5009307;28;20026;-56
2022/07/11 10:10:50;;;;;;;17.98;7.60;;;9.10;99.80;;;;;;5013914;28;20045;-56
2022/07/11 10:13:17;;;;;;;17.42;9.10;;;9.10;99.80;;;;;;5006202;28;20014;-56
2022/07/11 10:15:47;;;;;;;19.05;9.80;;;9.10;99.90;;;;;;5008543;28;20034;-58
2022/07/11 10:18:33;;;;;;;27.35;9.70;;;9.10;99.90;;;;;;5008196;28;20113;-55
2022/07/11 10:21:34;;;;;;;25.52;8.70;;;9.10;99.90;;;;;;5007992;28;20558;-56
2022/07/11 10:24:21;;;;;;;19.10;7.60;;;9.10;99.90;;;;;;5022874;28;20021;-56
2022/07/11 10:27:27;;;;;;;15.82;7.80;;;9.10;99.90;;;;;;5006883;28;20076;-56
2022/07/11 10:29:54;;;;;;;;;;;9.10;99.90;;;;;;5011311;28;20041;-56
2022/07/11 10:32:21;;;;;;;17.02;8.60;;;9.10;99.90;;;;;;5015022;28;19926;-55
2022/07/11 10:35:08;;;;;;;13.70;7.35;;;9.10;99.90;;;;;;5018381;28;20029;-55
2022/07/11 10:37:48;;;;;;;19.65;8.27;;;9.10;99.90;;;;;;5010967;28;20069;-54
2022/07/11 10:40:16;;;;;;;18.17;7.53;;;9.00;99.90;;;;;;5009224;28;20038;-56
2022/07/11 10:42:43;;;;;;;13.70;6.90;;;9.00;99.90;;;;;;5011815;28;20289;-57
2022/07/11 10:45:12;;;;;;;15.98;8.13;;;9.00;99.90;;;;;;5005782;28;20513;-54
2022/07/11 10:47:44;;;;;;;12.07;6.68;;;9.00;99.90;;;;;;5005070;28;20054;-56
2022/07/11 10:50:31;;;;;;;13.23;6.38;;;9.00;99.90;;;;;;5005468;28;20479;-54
2022/07/11 10:53:00;;;;;;;13.98;6.72;;;9.00;99.90;;;;;;5006421;28;20069;-56
2022/07/11 10:55:35;;;;;;;20.63;7.57;;;9.00;99.90;;;;;;5006514;28;20026;-54
2022/07/11 10:58:21;;;;;;;17.08;7.40;;;8.90;99.90;;;;;;5005300;28;20034;-55
2022/07/11 11:01:08;;;;;;;17.05;8.23;;;9.00;99.90;;;;;;5006960;28;20032;-56
2022/07/11 11:03:35;;;;;;;12.95;7.72;;;9.00;99.90;;;;;;4985517;28;20034;-56
2022/07/11 11:06:03;;;;;;;12.02;7.45;;;9.00;99.90;;;;;;4989202;28;20487;-55
2022/07/11 11:08:36;;;;;;;15.82;8.90;;;9.00;99.90;;;;;;5000012;28;20022;-55
2022/07/11 11:11:04;;;;;;;21.08;9.10;;;9.00;99.90;;;;;;4992485;28;20049;-55
2022/07/11 11:13:35;;;;;;;23.23;9.18;;;9.00;99.90;;;;;;5007028;28;20474;-54
2022/07/11 11:16:19;;;;;;;11.77;6.90;;;8.90;99.90;;;;;;5008334;28;20026;-54
2022/07/11 11:18:46;;;;;;;15.98;7.60;;;8.90;99.90;;;;;;5006582;28;20117;-58
2022/07/11 11:21:17;;;;;;;18.02;8.05;;;8.90;99.90;;;;;;5007616;28;20025;-56
2022/07/11 11:24:02;;;;;;;11.05;6.80;;;8.90;99.90;;;;;;5008109;28;20022;-55
2022/07/11 11:27:01;;;;;;;13.38;6.72;;;8.80;99.90;;;;;;4989820;28;20030;-55
2022/07/11 11:29:29;;;;;;;13.07;6.45;;;8.80;99.90;;;;;;4961001;28;20398;-57
2022/07/11 11:31:59;;;;;;;13.95;6.82;;;8.80;99.90;;;;;;4999160;28;20071;-56
2022/07/11 11:34:27;;;;;;;12.10;6.70;;;8.80;99.90;;;;;;5006622;28;20402;-55
2022/07/11 11:36:59;;;;;;;14.77;7.18;;;8.80;99.90;;;;;;4991809;28;20026;-54
2022/07/11 11:39:32;;;;;;;12.00;6.70;;;8.70;99.90;;;;;;4997513;28;20022;-54
2022/07/11 11:42:16;;;;;;;13.02;5.68;;;8.70;99.90;;;;;;5005425;28;20030;-50
2022/07/11 11:44:51;;;;;;;13.87;6.53;;;8.70;99.90;;;;;;5006408;28;20037;-55
2022/07/11 11:47:19;;;;;;;16.08;5.40;;;8.70;99.90;;;;;;5005511;28;20290;-52
2022/07/11 11:49:49;;;;;;;12.43;5.18;;;8.80;99.90;;;;;;5003739;28;20034;-57
2022/07/11 11:52:17;;;;;;;11.60;5.43;;;8.80;99.90;;;;;;5008093;28;20045;-57
2022/07/11 11:54:50;;;;;;;16.25;5.25;;;8.80;99.90;;;;;;5025737;28;20048;-57
2022/07/11 11:57:17;;;;;;;11.10;4.22;;;8.80;99.90;;;;;;5013190;28;20029;-57
2022/07/11 11:59:44;;;;;;;15.00;3.63;;;8.80;99.90;;;;;;4996127;28;20050;-53
2022/07/11 12:02:11;;;;;;;7.72;4.15;;;8.90;99.90;;;;;;5028349;28;20017;-55
2022/07/11 12:04:39;;;;;;;18.17;4.05;;;8.90;99.90;;;;;;5006323;28;20056;-54
2022/07/11 12:07:06;;;;;;;10.02;3.63;;;8.90;99.90;;;;;;5006490;28;20026;-55
2022/07/11 12:09:55;;;;;;;8.00;2.90;;;9.00;99.90;;;;;;5009925;28;20068;-57
2022/07/11 12:15:27;;;;;;;7.03;2.92;;;9.00;99.90;;;;;;5003006;28;20033;-55
2022/07/11 12:17:59;;;;;;;6.65;2.92;;;9.00;99.90;;;;;;5010839;28;20030;-58
2022/07/11 12:20:37;;;;;;;11.07;4.03;;;9.00;99.90;;;;;;5007535;28;20986;-53
2022/07/11 12:23:07;;;;;;;6.10;3.38;;;9.00;99.90;;;;;;5008993;28;20483;-52
2022/07/11 12:25:35;;;;;;;6.97;3.55;;;8.90;99.70;;;;;;5008030;28;20120;-58
2022/07/11 12:28:03;;;;;;;10.70;3.53;;;8.80;99.60;;;;;;5008442;28;20026;-55
2022/07/11 12:30:30;;;;;;;9.40;3.60;;;8.80;99.70;;;;;;5007745;28;20017;-54
2022/07/11 12:33:12;;;;;;;9.00;3.17;;;8.70;99.60;;;;;;5008295;28;20397;-53
2022/07/11 12:35:54;;;;;;;10.02;2.75;;;8.60;99.40;;;;;;5007664;28;20030;-54
2022/07/11 12:38:22;;;;;;;9.82;2.90;;;8.50;99.40;;;;;;5022621;28;20030;-54
2022/07/11 12:41:00;;;;;;;6.97;3.13;;;8.40;99.20;;;;;;5007569;28;20514;-54
2022/07/11 12:46:48;;;;;;;5.22;2.65;;;8.20;99.20;;;;;;4994992;28;20132;-55
2022/07/11 12:49:17;;;;;;;5.00;2.53;;;8.20;99.30;;;;;;5008069;28;20075;-56
2022/07/11 12:51:46;;;;;;;5.95;2.50;;;8.10;99.30;;;;;;5005733;28;20811;-57
2022/07/11 12:54:15;;;;;;;5.75;3.08;;;8.00;99.30;;;;;;5009830;28;20545;-56
2022/07/11 12:57:01;;;;;;;10.35;3.80;;;7.90;99.40;;;;;;5007161;28;20503;-57
2022/07/11 12:59:33;;;;;;;8.10;3.17;;;7.90;99.60;;;;;;5010982;28;20388;-57
2022/07/11 13:02:04;;;;;;;7.53;3.42;;;7.90;99.50;;;;;;5007366;28;20080;-56
2022/07/11 13:04:49;;;;;;;8.73;3.17;;;7.90;99.50;;;;;;5007189;28;20018;-54
2022/07/11 13:10:24;;;;;;;6.60;2.53;;;7.70;99.40;;;;;;5001643;28;20049;-56
2022/07/11 13:12:54;;;;;;;8.00;2.50;;;7.70;99.50;;;;;;5009047;28;20141;-53
2022/07/11 13:15:22;;;;;;;4.70;2.60;;;7.60;99.40;;;;;;5008033;28;20037;-56